createdAt,value
2023-08-15T00:00:17.508Z,7.72
2023-08-15T00:02:44.626Z,7.85
2023-08-15T00:05:11.727Z,8.40
2023-08-15T00:07:57.165Z,8.93
2023-08-15T00:10:24.066Z,8.40
2023-08-15T00:12:50.879Z,8.10
2023-08-15T00:15:19.627Z,8.80
2023-08-15T00:17:46.618Z,8.43
2023-08-15T00:20:14.027Z,8.88
2023-08-15T00:22:40.868Z,8.77
2023-08-15T00:25:08.070Z,8.77
2023-08-15T00:27:35.101Z,8.43
2023-08-15T00:30:01.987Z,8.90
2023-08-15T00:32:32.500Z,9.48
2023-08-15T00:35:00.358Z,8.80
2023-08-15T00:37:27.208Z,9.07
2023-08-15T00:39:54.055Z,8.57
2023-08-15T00:42:20.934Z,9.80
2023-08-15T00:44:47.811Z,9.15
2023-08-15T00:47:15.210Z,9.35
2023-08-15T00:49:45.923Z,8.85
2023-08-15T00:52:16.097Z,8.75
2023-08-15T00:54:46.568Z,8.68
2023-08-15T00:57:14.168Z,8.77
2023-08-15T00:59:44.638Z,9.65
2023-08-15T01:02:12.892Z,12.48
2023-08-15T01:04:41.309Z,10.25
2023-08-15T01:07:09.547Z,11.63
2023-08-15T01:09:37.289Z,10.77
2023-08-15T01:12:16.157Z,11.55
2023-08-15T01:14:52.074Z,10.35
2023-08-15T01:17:26.058Z,9.82
2023-08-15T01:19:57.352Z,11.00
2023-08-15T01:22:29.513Z,10.77
2023-08-15T01:24:56.763Z,10.32
2023-08-15T01:27:23.903Z,10.82
2023-08-15T01:29:50.779Z,11.88
2023-08-15T01:32:29.902Z,12.05
2023-08-15T01:35:02.895Z,12.40
2023-08-15T01:37:31.411Z,12.18
2023-08-15T01:40:02.009Z,12.77
2023-08-15T01:42:31.834Z,12.07
2023-08-15T01:45:01.547Z,12.75
2023-08-15T01:47:33.330Z,11.82
2023-08-15T01:50:00.177Z,11.75
2023-08-15T01:52:27.117Z,12.25
2023-08-15T01:54:53.998Z,11.68
2023-08-15T01:57:20.992Z,11.43
2023-08-15T01:59:48.058Z,12.00
2023-08-15T02:02:14.909Z,11.95
2023-08-15T02:04:41.821Z,11.48
2023-08-15T02:07:08.696Z,12.77
2023-08-15T02:09:35.541Z,12.57
2023-08-15T02:12:02.404Z,12.95
2023-08-15T02:14:29.219Z,12.40
2023-08-15T02:16:56.071Z,12.05
2023-08-15T02:19:22.917Z,13.60
2023-08-15T02:21:52.299Z,13.50
2023-08-15T02:24:19.323Z,13.18
2023-08-15T02:26:46.238Z,12.48
2023-08-15T02:29:16.066Z,12.18
2023-08-15T02:31:48.908Z,13.63
2023-08-15T02:34:19.564Z,13.00
2023-08-15T02:36:50.551Z,13.18
2023-08-15T02:39:18.408Z,13.02
2023-08-15T02:41:45.620Z,12.88
2023-08-15T02:44:12.830Z,15.02
2023-08-15T02:46:39.937Z,15.70
2023-08-15T02:49:07.055Z,16.25
2023-08-15T02:51:34.220Z,14.13
2023-08-15T02:54:01.058Z,15.18
2023-08-15T02:56:27.940Z,15.48
2023-08-15T02:58:55.366Z,15.80
2023-08-15T03:01:23.011Z,16.60
2023-08-15T03:03:50.847Z,15.02
2023-08-15T03:06:17.856Z,15.88
2023-08-15T03:08:46.331Z,15.00
2023-08-15T03:11:13.665Z,15.77
2023-08-15T03:13:40.749Z,17.15
2023-08-15T03:16:07.806Z,17.20
2023-08-15T03:18:34.751Z,17.63
2023-08-15T03:21:04.120Z,17.40
2023-08-15T03:23:32.440Z,17.02
2023-08-15T03:26:00.959Z,17.38
2023-08-15T03:28:37.398Z,16.92
2023-08-15T03:31:09.902Z,17.58
2023-08-15T03:33:51.631Z,18.20
2023-08-15T03:36:18.625Z,17.55
2023-08-15T03:38:46.758Z,18.75
2023-08-15T03:41:13.617Z,17.92
2023-08-15T03:43:40.610Z,17.42
2023-08-15T03:46:07.778Z,19.17
2023-08-15T03:48:35.795Z,18.42
2023-08-15T03:51:03.640Z,17.90
2023-08-15T03:53:30.581Z,19.77
2023-08-15T03:55:59.148Z,20.35
2023-08-15T03:58:26.247Z,19.58
2023-08-15T04:00:53.156Z,19.73
2023-08-15T04:03:20.199Z,19.70
2023-08-15T04:05:47.923Z,19.23
2023-08-15T04:08:16.846Z,19.08
2023-08-15T04:10:47.509Z,19.55
2023-08-15T04:13:15.480Z,19.05
2023-08-15T04:15:45.174Z,18.45
2023-08-15T04:18:12.923Z,17.52
2023-08-15T04:20:42.077Z,17.52
2023-08-15T04:23:10.193Z,17.20
2023-08-15T04:25:39.544Z,17.02
2023-08-15T04:28:08.082Z,17.88
2023-08-15T04:30:36.795Z,17.27
2023-08-15T04:33:03.888Z,17.88
2023-08-15T04:35:30.790Z,16.80
2023-08-15T04:37:57.987Z,17.63
2023-08-15T04:40:39.119Z,18.60
2023-08-15T04:43:05.993Z,17.05
2023-08-15T04:45:33.184Z,18.27
2023-08-15T04:48:00.238Z,18.38
2023-08-15T04:50:27.109Z,17.65
2023-08-15T04:52:53.930Z,19.02
2023-08-15T04:55:23.645Z,18.50
2023-08-15T04:57:50.584Z,16.63
2023-08-15T05:00:20.394Z,17.77
2023-08-15T05:02:49.024Z,16.60
2023-08-15T05:05:17.420Z,18.10
2023-08-15T05:07:44.924Z,18.15
2023-08-15T05:10:11.866Z,17.05
2023-08-15T05:12:42.151Z,18.00
2023-08-15T05:15:09.451Z,18.40
2023-08-15T05:17:37.259Z,17.20
2023-08-15T05:20:05.653Z,17.90
2023-08-15T05:22:33.625Z,17.98
2023-08-15T05:25:00.721Z,17.95
2023-08-15T05:27:29.277Z,18.10
2023-08-15T05:29:57.149Z,18.85
2023-08-15T05:32:23.993Z,18.15
2023-08-15T05:34:51.087Z,18.85
2023-08-15T05:37:19.514Z,17.40
2023-08-15T05:39:47.474Z,18.02
2023-08-15T05:42:18.804Z,18.90
2023-08-15T05:44:46.993Z,18.40
2023-08-15T05:47:14.049Z,18.50
2023-08-15T05:49:43.293Z,18.15
2023-08-15T05:52:10.396Z,17.92
2023-08-15T05:54:37.302Z,18.33
2023-08-15T05:57:04.668Z,17.67
2023-08-15T05:59:31.526Z,17.90
2023-08-15T06:01:58.407Z,18.27
2023-08-15T06:04:25.296Z,17.60
2023-08-15T06:06:52.146Z,15.77
2023-08-15T06:09:19.469Z,15.57
2023-08-15T06:11:46.396Z,15.23
2023-08-15T06:14:13.228Z,15.02
2023-08-15T06:16:40.083Z,14.38
2023-08-15T06:19:07.053Z,14.23
2023-08-15T06:21:33.872Z,14.23
2023-08-15T06:24:00.699Z,14.32
2023-08-15T06:26:27.618Z,14.20
2023-08-15T06:28:54.503Z,13.60
2023-08-15T06:31:21.413Z,14.27
2023-08-15T06:33:48.281Z,14.43
2023-08-15T06:36:15.117Z,13.93
2023-08-15T06:38:41.971Z,14.35
2023-08-15T06:41:08.796Z,13.60
2023-08-15T06:43:35.630Z,12.63
2023-08-15T06:46:02.608Z,12.27
2023-08-15T06:48:29.458Z,11.32
2023-08-15T06:50:56.467Z,10.55
2023-08-15T06:53:23.491Z,10.43
2023-08-15T06:55:50.884Z,9.57
2023-08-15T06:58:18.672Z,9.95
2023-08-15T07:00:45.622Z,9.90
2023-08-15T07:03:17.155Z,9.50
2023-08-15T07:05:44.586Z,9.32
2023-08-15T07:08:14.190Z,9.45
2023-08-15T07:10:41.086Z,9.43
2023-08-15T07:13:07.976Z,9.50
2023-08-15T07:15:34.832Z,8.90
2023-08-15T07:18:01.856Z,9.05
2023-08-15T07:20:30.323Z,8.75
2023-08-15T07:23:00.251Z,9.77
2023-08-15T07:25:27.069Z,9.02
2023-08-15T07:27:54.005Z,9.90
2023-08-15T07:30:20.922Z,10.07
2023-08-15T07:32:47.839Z,8.77
2023-08-15T07:35:14.696Z,10.20
2023-08-15T07:37:41.572Z,9.93
2023-08-15T07:40:11.082Z,10.02
2023-08-15T07:42:38.478Z,10.15
2023-08-15T07:45:06.070Z,9.93
2023-08-15T07:47:35.617Z,9.10
2023-08-15T07:50:13.980Z,9.35
2023-08-15T07:52:41.108Z,9.38
2023-08-15T07:55:08.963Z,7.55
2023-08-15T07:57:36.288Z,6.97
2023-08-15T08:00:04.672Z,6.65
2023-08-15T08:02:39.230Z,6.22
2023-08-15T08:05:08.973Z,6.43
2023-08-15T08:07:36.037Z,6.38
2023-08-15T08:10:03.741Z,6.50
2023-08-15T08:12:31.659Z,6.47
2023-08-15T08:14:58.627Z,4.88
2023-08-15T08:17:25.642Z,5.00
2023-08-15T08:19:52.667Z,4.28
2023-08-15T08:22:20.072Z,3.67
2023-08-15T08:24:50.580Z,3.53
2023-08-15T08:27:17.555Z,4.82
2023-08-15T08:29:44.389Z,4.22
2023-08-15T08:32:11.203Z,4.30
2023-08-15T08:34:38.051Z,4.13
2023-08-15T08:37:04.878Z,4.25
2023-08-15T08:39:32.831Z,3.63
2023-08-15T08:42:01.768Z,3.53
2023-08-15T08:44:31.393Z,3.50
2023-08-15T08:47:00.156Z,2.92
2023-08-15T08:49:28.139Z,3.03
2023-08-15T08:51:57.755Z,7.53
2023-08-15T08:54:41.198Z,3.13
2023-08-15T08:57:12.796Z,2.72
2023-08-15T08:59:44.248Z,2.90
2023-08-15T09:02:13.819Z,2.90
2023-08-15T09:04:41.950Z,3.08
2023-08-15T09:07:08.989Z,2.92
2023-08-15T09:09:35.830Z,3.30
2023-08-15T09:12:02.914Z,2.55
2023-08-15T09:14:29.770Z,2.50
2023-08-15T09:16:56.749Z,2.70
2023-08-15T09:19:23.608Z,2.60
2023-08-15T09:21:50.640Z,2.75
2023-08-15T09:24:17.451Z,2.88
2023-08-15T09:26:44.567Z,2.47
2023-08-15T09:29:13.627Z,3.03
2023-08-15T09:31:41.412Z,2.40
2023-08-15T09:34:11.630Z,2.45
2023-08-15T09:36:39.173Z,2.80
2023-08-15T09:39:10.039Z,2.70
2023-08-15T09:41:42.040Z,2.47
2023-08-15T09:44:09.063Z,2.70
2023-08-15T09:46:36.646Z,2.30
2023-08-15T09:49:04.481Z,2.40
2023-08-15T09:51:31.324Z,3.00
2023-08-15T09:54:00.977Z,2.92
2023-08-15T09:56:28.208Z,3.10
2023-08-15T09:58:55.141Z,2.88
2023-08-15T10:01:26.924Z,2.83
2023-08-15T10:03:55.025Z,2.53
2023-08-15T10:06:22.866Z,2.80
2023-08-15T10:08:50.194Z,2.80
2023-08-15T10:11:18.962Z,2.90
2023-08-15T10:13:48.094Z,2.78
2023-08-15T10:16:15.364Z,2.67
2023-08-15T10:19:20.250Z,3.03
2023-08-15T10:21:51.448Z,3.13
2023-08-15T10:24:18.433Z,3.22
2023-08-15T10:26:46.769Z,3.30
2023-08-15T10:29:14.196Z,3.50
2023-08-15T10:31:41.861Z,3.28
2023-08-15T10:34:11.659Z,3.63
2023-08-15T10:36:43.073Z,3.40
2023-08-15T10:39:10.053Z,3.38
2023-08-15T10:41:37.499Z,3.13
2023-08-15T10:44:09.152Z,3.50
2023-08-15T10:46:37.173Z,3.40
2023-08-15T10:49:10.611Z,3.42
2023-08-15T10:51:39.403Z,3.28
2023-08-15T10:54:10.557Z,4.10
2023-08-15T10:56:39.696Z,3.45
2023-08-15T10:59:08.259Z,3.83
2023-08-15T11:01:37.836Z,3.90
2023-08-15T11:04:07.553Z,3.90
2023-08-15T11:06:41.957Z,4.43
2023-08-15T11:09:08.908Z,4.95
2023-08-15T11:11:36.116Z,4.70
2023-08-15T11:14:03.109Z,4.97
2023-08-15T11:16:30.021Z,5.32
2023-08-15T11:19:00.411Z,6.40
2023-08-15T11:21:30.282Z,6.25
2023-08-15T11:24:02.030Z,6.57
2023-08-15T11:26:29.400Z,6.25
2023-08-15T11:28:56.307Z,7.00
2023-08-15T11:31:23.588Z,7.97
2023-08-15T11:33:52.752Z,7.45
2023-08-15T11:36:21.936Z,7.97
2023-08-15T11:38:48.850Z,8.50
2023-08-15T11:41:16.055Z,8.35
2023-08-15T11:43:43.047Z,9.30
2023-08-15T11:46:09.993Z,10.55
2023-08-15T11:48:37.353Z,10.60
2023-08-15T11:51:04.923Z,10.75
2023-08-15T11:53:32.710Z,10.73
2023-08-15T11:55:59.699Z,10.05
2023-08-15T11:58:30.176Z,10.30
2023-08-15T12:01:01.230Z,10.60
2023-08-15T12:03:28.768Z,10.88
2023-08-15T12:05:57.051Z,11.50
2023-08-15T12:08:28.600Z,11.38
2023-08-15T12:10:57.391Z,11.52
2023-08-15T12:13:35.517Z,11.57
2023-08-15T12:16:03.740Z,11.52
2023-08-15T12:18:31.725Z,11.60
2023-08-15T12:20:59.246Z,12.10
2023-08-15T12:23:28.785Z,12.32
2023-08-15T12:25:56.839Z,12.13
2023-08-15T12:28:23.853Z,11.80
2023-08-15T12:30:51.229Z,11.55
2023-08-15T12:33:35.247Z,12.63
2023-08-15T12:36:05.463Z,12.45
2023-08-15T12:38:32.280Z,12.27
2023-08-15T12:40:59.181Z,12.18
2023-08-15T12:43:26.198Z,12.27
2023-08-15T12:45:53.094Z,13.13
2023-08-15T12:48:20.062Z,12.20
2023-08-15T12:50:47.036Z,12.55
2023-08-15T12:53:14.059Z,12.15
2023-08-15T12:55:41.026Z,11.80
2023-08-15T12:58:09.216Z,12.10
2023-08-15T13:00:36.755Z,12.52
2023-08-15T13:03:06.140Z,12.18
2023-08-15T13:05:33.094Z,12.43
2023-08-15T13:07:59.941Z,12.27
2023-08-15T13:10:26.818Z,12.20
2023-08-15T13:12:53.750Z,12.60
2023-08-15T13:15:20.713Z,12.25
2023-08-15T13:17:47.708Z,12.30
2023-08-15T13:20:15.813Z,12.35
2023-08-15T13:22:42.834Z,11.95
2023-08-15T13:25:09.956Z,12.80
2023-08-15T13:27:36.943Z,11.70
2023-08-15T13:30:03.948Z,12.20
2023-08-15T13:32:30.811Z,12.90
2023-08-15T13:34:57.607Z,12.93
2023-08-15T13:37:24.461Z,13.48
2023-08-15T13:39:51.392Z,13.00
2023-08-15T13:42:34.111Z,12.38
2023-08-15T13:45:05.942Z,11.95
2023-08-15T13:47:33.594Z,12.00
2023-08-15T13:50:01.411Z,11.77
2023-08-15T13:52:29.489Z,12.10
2023-08-15T13:54:56.352Z,12.48
2023-08-15T13:57:23.498Z,12.93
2023-08-15T13:59:50.760Z,13.13
2023-08-15T14:02:17.780Z,12.82
2023-08-15T14:04:44.813Z,12.63
2023-08-15T14:07:11.644Z,11.95
2023-08-15T14:09:38.458Z,12.00
2023-08-15T14:12:05.731Z,12.20
2023-08-15T14:14:32.698Z,11.77
2023-08-15T14:16:59.545Z,12.55
2023-08-15T14:19:26.473Z,11.85
2023-08-15T14:21:53.340Z,11.40
2023-08-15T14:24:21.385Z,11.60
2023-08-15T14:26:48.277Z,11.70
2023-08-15T14:29:15.195Z,12.00
2023-08-15T14:31:42.132Z,11.85
2023-08-15T14:34:10.061Z,12.00
2023-08-15T14:36:36.960Z,11.27
2023-08-15T14:39:03.950Z,10.98
2023-08-15T14:41:34.377Z,10.82
2023-08-15T14:44:01.376Z,11.45
2023-08-15T14:46:28.278Z,11.90
2023-08-15T14:48:55.209Z,11.68
2023-08-15T14:51:22.080Z,11.40
2023-08-15T14:53:48.948Z,11.10
2023-08-15T14:56:16.761Z,11.18
2023-08-15T14:58:45.661Z,9.85
2023-08-15T15:01:13.301Z,9.70
2023-08-15T15:03:40.644Z,10.38
2023-08-15T15:06:07.761Z,10.25
2023-08-15T15:08:34.733Z,10.43
2023-08-15T15:11:04.410Z,10.05
2023-08-15T15:13:31.712Z,10.20
2023-08-15T15:15:58.665Z,10.07
2023-08-15T15:18:25.715Z,11.05
2023-08-15T15:20:52.612Z,10.60
2023-08-15T15:23:19.802Z,10.40
2023-08-15T15:25:47.028Z,11.40
2023-08-15T15:28:14.131Z,10.57
2023-08-15T15:30:41.030Z,10.30
2023-08-15T15:33:10.756Z,10.48
2023-08-15T15:35:37.685Z,10.05
2023-08-15T15:38:04.673Z,10.55
2023-08-15T15:40:31.474Z,10.98
2023-08-15T15:42:58.353Z,10.40
2023-08-15T15:45:25.286Z,11.25
2023-08-15T15:47:52.242Z,10.88
2023-08-15T15:50:21.197Z,10.77
2023-08-15T15:52:48.980Z,11.10
2023-08-15T15:55:21.271Z,11.38
2023-08-15T15:57:48.639Z,11.23
2023-08-15T16:00:17.337Z,11.65
2023-08-15T16:02:44.556Z,11.70
2023-08-15T16:05:12.661Z,11.65
2023-08-15T16:07:39.632Z,11.73
2023-08-15T16:10:07.312Z,11.68
2023-08-15T16:12:34.223Z,11.25
2023-08-15T16:15:01.390Z,11.38
2023-08-15T16:17:28.401Z,11.30
2023-08-15T16:19:57.570Z,11.48
2023-08-15T16:22:25.209Z,12.10
2023-08-15T16:24:52.427Z,12.30
2023-08-15T16:27:20.523Z,11.90
2023-08-15T16:29:47.683Z,12.13
2023-08-15T16:32:17.058Z,12.25
2023-08-15T16:34:44.457Z,11.90
2023-08-15T16:37:11.451Z,11.43
2023-08-15T16:39:38.244Z,11.63
2023-08-15T16:42:05.336Z,11.45
2023-08-15T16:44:32.151Z,12.30
2023-08-15T16:46:59.028Z,11.95
2023-08-15T16:49:25.855Z,11.88
2023-08-15T16:51:52.693Z,12.27
2023-08-15T16:54:19.543Z,12.20
2023-08-15T16:56:46.387Z,12.20
2023-08-15T16:59:13.218Z,11.98
2023-08-15T17:01:40.104Z,12.23
2023-08-15T17:04:07.168Z,12.40
2023-08-15T17:06:34.222Z,12.40
2023-08-15T17:09:01.026Z,12.68
2023-08-15T17:11:28.327Z,12.20
2023-08-15T17:13:55.548Z,12.30
2023-08-15T17:16:22.473Z,12.07
2023-08-15T17:18:49.405Z,11.88
2023-08-15T17:21:16.240Z,12.23
2023-08-15T17:23:43.165Z,12.15
2023-08-15T17:26:10.032Z,12.05
2023-08-15T17:28:36.974Z,12.10
2023-08-15T17:31:03.862Z,11.98
2023-08-15T17:33:30.687Z,11.85
2023-08-15T17:35:57.628Z,11.93
2023-08-15T17:38:24.500Z,11.80
2023-08-15T17:40:51.302Z,11.95
2023-08-15T17:43:18.458Z,11.35
2023-08-15T17:45:45.301Z,12.00
2023-08-15T17:48:12.230Z,11.45
2023-08-15T17:50:39.106Z,11.45
2023-08-15T17:53:06.020Z,11.27
2023-08-15T17:55:32.823Z,11.32
2023-08-15T17:57:59.691Z,10.82
2023-08-15T18:00:27.791Z,10.63
2023-08-15T18:02:57.705Z,10.73
2023-08-15T18:05:26.276Z,10.77
2023-08-15T18:07:53.163Z,10.70
2023-08-15T18:10:20.526Z,10.15
2023-08-15T18:12:47.395Z,9.75
2023-08-15T18:15:14.251Z,9.88
2023-08-15T18:17:41.379Z,9.30
2023-08-15T18:20:09.181Z,8.55
2023-08-15T18:22:37.442Z,8.90
2023-08-15T18:25:04.752Z,8.90
2023-08-15T18:27:31.637Z,8.32
2023-08-15T18:29:58.651Z,7.93
2023-08-15T18:32:26.081Z,7.55
2023-08-15T18:34:53.284Z,7.60
2023-08-15T18:37:20.195Z,7.53
2023-08-15T18:39:47.082Z,7.50
2023-08-15T18:42:13.959Z,7.28
2023-08-15T18:44:42.983Z,7.05
2023-08-15T18:47:09.887Z,6.47
2023-08-15T18:49:36.943Z,6.78
2023-08-15T18:52:04.062Z,6.75
2023-08-15T18:54:31.070Z,5.97
2023-08-15T18:56:57.933Z,6.53
2023-08-15T18:59:24.801Z,5.90
2023-08-15T19:01:51.738Z,6.00
2023-08-15T19:04:18.696Z,5.70
2023-08-15T19:06:45.592Z,5.93
2023-08-15T19:09:12.476Z,5.40
2023-08-15T19:11:39.462Z,5.90
2023-08-15T19:14:06.451Z,6.00
2023-08-15T19:16:33.306Z,5.60
2023-08-15T19:19:04.031Z,5.13
2023-08-15T19:21:31.771Z,5.68
2023-08-15T19:23:58.592Z,5.43
2023-08-15T19:26:25.419Z,5.47
2023-08-15T19:28:52.321Z,4.88
2023-08-15T19:31:19.217Z,4.88
2023-08-15T19:33:46.203Z,5.07
2023-08-15T19:36:13.214Z,5.35
2023-08-15T19:38:40.109Z,4.95
2023-08-15T19:41:07.321Z,4.85
2023-08-15T19:43:34.164Z,4.82
2023-08-15T19:46:01.010Z,5.32
2023-08-15T19:48:28.272Z,4.80
2023-08-15T19:50:55.097Z,5.07
2023-08-15T19:53:21.993Z,5.15
2023-08-15T19:55:48.948Z,5.57
2023-08-15T19:58:16.586Z,4.93
2023-08-15T20:00:44.232Z,4.47
2023-08-15T20:03:11.174Z,4.80
2023-08-15T20:05:38.101Z,4.97
2023-08-15T20:08:06.294Z,5.47
2023-08-15T20:10:33.209Z,5.90
2023-08-15T20:13:00.034Z,5.93
2023-08-15T20:15:26.998Z,5.60
2023-08-15T20:17:54.465Z,6.18
2023-08-15T20:20:22.751Z,6.03
2023-08-15T20:22:49.657Z,6.03
2023-08-15T20:25:16.533Z,6.28
2023-08-15T20:27:43.525Z,6.18
2023-08-15T20:30:10.948Z,5.85
2023-08-15T20:32:37.878Z,5.72
2023-08-15T20:35:06.266Z,5.75
2023-08-15T20:37:34.246Z,6.10
2023-08-15T20:40:01.108Z,5.30
2023-08-15T20:42:28.072Z,6.28
2023-08-15T20:44:54.956Z,6.40
2023-08-15T20:47:21.867Z,6.00
2023-08-15T20:49:48.833Z,6.13
2023-08-15T20:52:15.690Z,6.10
2023-08-15T20:54:42.548Z,5.80
2023-08-15T20:57:09.446Z,5.50
2023-08-15T20:59:36.370Z,5.35
2023-08-15T21:02:04.667Z,5.45
2023-08-15T21:04:32.069Z,5.53
2023-08-15T21:06:59.020Z,5.22
2023-08-15T21:09:25.984Z,5.53
2023-08-15T21:11:53.014Z,5.40
2023-08-15T21:14:19.983Z,6.57
2023-08-15T21:16:47.258Z,6.90
2023-08-15T21:19:14.197Z,6.45
2023-08-15T21:21:41.076Z,5.65
2023-08-15T21:24:08.104Z,6.70
2023-08-15T21:26:37.159Z,6.30
2023-08-15T21:29:04.448Z,6.20
2023-08-15T21:31:32.319Z,6.93
2023-08-15T21:33:59.367Z,6.63
2023-08-15T21:36:26.244Z,6.55
2023-08-15T21:38:53.897Z,6.97
2023-08-15T21:41:20.709Z,7.20
2023-08-15T21:43:47.543Z,7.05
2023-08-15T21:46:14.406Z,7.68
2023-08-15T21:48:41.286Z,7.95
2023-08-15T21:51:08.176Z,7.78
2023-08-15T21:53:35.074Z,8.07
2023-08-15T21:56:02.005Z,7.60
2023-08-15T21:58:28.840Z,7.80
2023-08-15T22:00:56.742Z,7.90
2023-08-15T22:03:23.867Z,7.45
2023-08-15T22:05:51.108Z,8.00
2023-08-15T22:08:18.056Z,8.20
2023-08-15T22:10:46.864Z,7.60
2023-08-15T22:13:13.826Z,7.32
2023-08-15T22:15:40.768Z,8.02
2023-08-15T22:18:19.838Z,8.15
2023-08-15T22:20:47.829Z,7.85
2023-08-15T22:23:14.705Z,8.13
2023-08-15T22:25:46.921Z,8.70
2023-08-15T22:28:15.102Z,7.53
2023-08-15T22:30:42.355Z,8.80
2023-08-15T22:33:09.309Z,9.68
2023-08-15T22:35:41.027Z,9.93
2023-08-15T22:38:08.411Z,10.23
2023-08-15T22:40:35.951Z,10.05
2023-08-15T22:43:02.955Z,11.10
2023-08-15T22:45:29.954Z,11.27
2023-08-15T22:47:56.898Z,10.70
2023-08-15T22:50:23.816Z,10.88
2023-08-15T22:52:50.662Z,11.48
2023-08-15T22:55:18.041Z,12.70
2023-08-15T22:57:44.870Z,13.57
2023-08-15T23:00:12.426Z,12.88
2023-08-15T23:02:39.445Z,12.43
2023-08-15T23:05:06.878Z,13.25
2023-08-15T23:07:33.747Z,13.65
2023-08-15T23:10:00.572Z,14.77
2023-08-15T23:12:27.440Z,15.93
2023-08-15T23:14:54.292Z,14.35
2023-08-15T23:17:21.509Z,14.13
2023-08-15T23:19:48.547Z,13.27
2023-08-15T23:22:15.406Z,13.13
2023-08-15T23:24:42.219Z,14.18
2023-08-15T23:27:09.133Z,13.93
2023-08-15T23:29:36.020Z,14.32
2023-08-15T23:32:04.939Z,13.70
2023-08-15T23:34:31.915Z,14.63
2023-08-15T23:36:58.863Z,14.63
2023-08-15T23:39:26.360Z,14.63
2023-08-15T23:41:53.347Z,15.02
2023-08-15T23:44:20.251Z,15.98
2023-08-15T23:46:48.715Z,15.02
2023-08-15T23:49:15.936Z,15.52
2023-08-15T23:51:42.900Z,16.13
2023-08-15T23:54:09.749Z,15.77
2023-08-15T23:56:36.583Z,16.00
2023-08-15T23:59:04.127Z,16.17
